Airfield :
LOGIN :

Register | Disclaimer

   EN    FR    IT 

 










Legend :    VFR   Marginal VFR   IFR   Intensive IFR   Very Intensive IFR
Visi :
Ceiling :
>= 8 km
>= 3000ft
5 to 8 km
1000 to 3000 ft
1500m to 5 km
500 to 1000 ft
800 to 1500m
200 to 500 ft
< 800m
< 200 ft
Symbols :   Thunderstorms  Fog  Heavy snow  Heavy precipitations  Wind > 20 kt
SIGMETs :     Misc.  Thunderstorms  Icing  Turbulence  Mountain Waves  Volcanic Ashes







- Airport Elevation : 124 ft
- IATA code : NHT
- Download approach charts


EGWU - RAF Northolt

EXPIRED METARs :
  • 241350Z 26013KT 9999 SCT027 BKN060 23/15 Q1013 NOSIG
  • 241250Z 25014KT 9999 FEW026 BKN045 21/14 Q1013 NOSIG
  • 241150Z 26013KT 9999 SCT028 BKN045 22/14 Q1013 NOSIG

TAF TAF EGWU
Valid from the 24 at 15:00 until the 25 at 09:00 UTC


241330Z 2415/2509 26012KT 9999 SCT025
TEMPO 2419/2501 SCT018
PROB30
TEMPO 2420/2501 SCT014
BECMG 2503/2506 BKN018
TEMPO 2507/2509 6000 -RADZ BKN012
No reported NOTAMs for that airfield.



MET'MAP, your aeronautical weather chart ! - Copyright ORBIFLY December 2007 - Disclaimer

ORBIFLY MET'MAP TEAM :

Programming & Development : Alexandra Zaïnal
Concept & Development : Baudouin d'Aumeries
Co-Development & Prog : Marc-Olivier Méhu
Technical & hardware support : Manuel Goepfert

Contact : metmap@orbifly.com




SOURCES & CREDITS :

   NOAA